Aeroporto :
LOGIN :

Iscrizione | Disclaimer

   EN    FR    IT 

 










Sommario :    VFR   VFR Marginale   IFR   IFR Intensivo   IFR Molto Intensivo
Visibilità : 
Base nubi : 
>= 8 km
>= 3000ft
5 / 8 km
1000 / 3000 ft
1500m / 5 km
500 / 1000 ft
800 / 1500m
200 / 500 ft
< 800m
< 200 ft
Simboli :   Temporali  Nebbia  Neve Forte  Precipitazioni Forti  Vento > 20 kt
SIGMETs :   Varie  Temporali  Ghiacco  Turbolenza  Onda orograficha  Ceneri Vulcaniche







- Altitudine del aeroporto : 19 ft
- Codice IATA : LCY
- Carte del aeroporto


EGLC - London City

ULTIMO METAR :
  • 240420Z AUTO VRB03KT 9999 NCD 13/07 Q1016

METARs OBSOLETI :
  • 240350Z AUTO 33005KT 260V350 9999 NCD 13/08 Q1016
  • 240320Z AUTO 33005KT 270V010 9999 NCD 14/07 Q1016
  • 240250Z AUTO VRB03KT 9999 NCD 14/08 Q1016
  • 240220Z AUTO 31004KT 260V020 9999 NCD 15/07 Q1015
  • 240150Z AUTO 29004KT 260V350 9999 NCD 15/07 Q1015

TAF TAF EGLC
Valido dal 24 a 03 ore il 24 a 12 ore UTC


240203Z 2403/2412 29005KT 9999 FEW045
ATIS : +44 20 7646 0224
Nessun NOTAM noto per questo aeroporto.



MetMap, La meteo Aeronautica in un colpo d'occhio ! - Copyright ORBIFLY Dicembre 2007 - Disclaimer

ORBIFLY MET'MAP TEAM :

Programmazione e sviluppo : Alexandra Zaïnal
Concezione e sviluppo : Baudouin d'Aumeries
Co-Programmazione e sviluppo : Marc-Olivier Méhu
Supporto tecnico e logistico : Manuel Goepfert
Aiuto per la traduzione : Arnaldo La Scala

Contatto : metmap@orbifly.com




FONTI E CREDITI :

   NOAA